sensor_id;sensor_type;location;lat;lon;timestamp;temperature;humidity
54788;DHT22;59598;48.112;16.280;2024-03-29T00:00:08;9.80;1.00
54788;DHT22;59598;48.112;16.280;2024-03-29T00:02:39;9.70;1.00
54788;DHT22;59598;48.112;16.280;2024-03-29T00:05:10;9.60;1.00
54788;DHT22;59598;48.112;16.280;2024-03-29T00:07:41;9.70;1.00
54788;DHT22;59598;48.112;16.280;2024-03-29T00:10:12;9.70;1.00
54788;DHT22;59598;48.112;16.280;2024-03-29T00:12:43;9.70;1.00
54788;DHT22;59598;48.112;16.280;2024-03-29T00:15:14;9.70;1.00
54788;DHT22;59598;48.112;16.280;2024-03-29T00:17:50;9.70;1.00
54788;DHT22;59598;48.112;16.280;2024-03-29T00:20:21;9.70;1.00
54788;DHT22;59598;48.112;16.280;2024-03-29T00:22:56;9.80;1.00
54788;DHT22;59598;48.112;16.280;2024-03-29T00:25:29;9.70;1.00
54788;DHT22;59598;48.112;16.280;2024-03-29T00:28:01;9.70;1.00
54788;DHT22;59598;48.112;16.280;2024-03-29T00:30:34;9.60;1.00
54788;DHT22;59598;48.112;16.280;2024-03-29T00:33:05;9.60;1.00
54788;DHT22;59598;48.112;16.280;2024-03-29T00:35:38;9.60;1.00
54788;DHT22;59598;48.112;16.280;2024-03-29T00:38:09;9.60;1.00
54788;DHT22;59598;48.112;16.280;2024-03-29T00:40:40;9.60;1.00
54788;DHT22;59598;48.112;16.280;2024-03-29T00:43:11;9.80;1.00
54788;DHT22;59598;48.112;16.280;2024-03-29T00:45:49;9.80;1.00
54788;DHT22;59598;48.112;16.280;2024-03-29T00:48:20;9.70;1.00
54788;DHT22;59598;48.112;16.280;2024-03-29T00:50:52;9.60;1.00
54788;DHT22;59598;48.112;16.280;2024-03-29T00:53:23;9.60;1.00
54788;DHT22;59598;48.112;16.280;2024-03-29T00:55:54;9.50;1.00
54788;DHT22;59598;48.112;16.280;2024-03-29T00:58:25;9.30;1.00
54788;DHT22;59598;48.112;16.280;2024-03-29T01:01:00;9.30;99.90
54788;DHT22;59598;48.112;16.280;2024-03-29T01:03:31;9.00;1.00
54788;DHT22;59598;48.112;16.280;2024-03-29T01:06:04;8.90;1.00
54788;DHT22;59598;48.112;16.280;2024-03-29T01:08:35;8.60;1.00
54788;DHT22;59598;48.112;16.280;2024-03-29T01:11:06;8.30;99.90
54788;DHT22;59598;48.112;16.280;2024-03-29T01:13:37;8.10;1.00
54788;DHT22;59598;48.112;16.280;2024-03-29T01:16:11;7.90;1.00
54788;DHT22;59598;48.112;16.280;2024-03-29T01:18:43;7.70;1.00
54788;DHT22;59598;48.112;16.280;2024-03-29T01:21:14;7.50;1.00
54788;DHT22;59598;48.112;16.280;2024-03-29T01:23:45;7.30;1.00
54788;DHT22;59598;48.112;16.280;2024-03-29T01:26:16;7.10;1.00
54788;DHT22;59598;48.112;16.280;2024-03-29T01:28:50;6.90;1.00
54788;DHT22;59598;48.112;16.280;2024-03-29T01:31:23;6.80;1.00
54788;DHT22;59598;48.112;16.280;2024-03-29T01:33:57;6.70;1.00
54788;DHT22;59598;48.112;16.280;2024-03-29T01:36:29;6.80;1.00
54788;DHT22;59598;48.112;16.280;2024-03-29T01:39:00;6.90;1.00
54788;DHT22;59598;48.112;16.280;2024-03-29T01:41:31;7.00;1.00
54788;DHT22;59598;48.112;16.280;2024-03-29T01:44:05;6.90;1.00
54788;DHT22;59598;48.112;16.280;2024-03-29T01:46:37;6.80;1.00
54788;DHT22;59598;48.112;16.280;2024-03-29T01:49:08;7.00;1.00
54788;DHT22;59598;48.112;16.280;2024-03-29T01:51:40;6.90;1.00
54788;DHT22;59598;48.112;16.280;2024-03-29T01:54:13;6.90;1.00
54788;DHT22;59598;48.112;16.280;2024-03-29T01:56:44;6.80;1.00
54788;DHT22;59598;48.112;16.280;2024-03-29T01:59:16;6.80;1.00
54788;DHT22;59598;48.112;16.280;2024-03-29T02:01:47;6.80;1.00
54788;DHT22;59598;48.112;16.280;2024-03-29T02:04:20;6.80;1.00
54788;DHT22;59598;48.112;16.280;2024-03-29T02:06:56;6.80;1.00
54788;DHT22;59598;48.112;16.280;2024-03-29T02:09:28;6.90;1.00
54788;DHT22;59598;48.112;16.280;2024-03-29T02:12:01;6.90;1.00
54788;DHT22;59598;48.112;16.280;2024-03-29T02:14:34;6.70;1.00
54788;DHT22;59598;48.112;16.280;2024-03-29T02:17:05;6.60;1.00
54788;DHT22;59598;48.112;16.280;2024-03-29T02:19:36;6.50;1.00
54788;DHT22;59598;48.112;16.280;2024-03-29T02:22:07;6.60;1.00
54788;DHT22;59598;48.112;16.280;2024-03-29T02:24:38;6.80;1.00
54788;DHT22;59598;48.112;16.280;2024-03-29T02:27:09;7.00;1.00
54788;DHT22;59598;48.112;16.280;2024-03-29T02:29:40;7.00;1.00
54788;DHT22;59598;48.112;16.280;2024-03-29T02:32:13;6.80;1.00
54788;DHT22;59598;48.112;16.280;2024-03-29T02:34:45;6.60;1.00
54788;DHT22;59598;48.112;16.280;2024-03-29T02:37:16;6.50;1.00
54788;DHT22;59598;48.112;16.280;2024-03-29T02:39:46;6.50;1.00
54788;DHT22;59598;48.112;16.280;2024-03-29T02:42:17;6.30;1.00
54788;DHT22;59598;48.112;16.280;2024-03-29T02:44:48;6.40;1.00
54788;DHT22;59598;48.112;16.280;2024-03-29T02:47:19;6.50;1.00
54788;DHT22;59598;48.112;16.280;2024-03-29T02:49:53;6.50;1.00
54788;DHT22;59598;48.112;16.280;2024-03-29T02:52:24;6.50;1.00
54788;DHT22;59598;48.112;16.280;2024-03-29T02:54:58;6.30;1.00
54788;DHT22;59598;48.112;16.280;2024-03-29T02:57:29;6.00;1.00
54788;DHT22;59598;48.112;16.280;2024-03-29T03:00:00;5.80;1.00
54788;DHT22;59598;48.112;16.280;2024-03-29T03:02:31;5.90;1.00
54788;DHT22;59598;48.112;16.280;2024-03-29T03:05:07;5.80;1.00
54788;DHT22;59598;48.112;16.280;2024-03-29T03:07:38;5.70;1.00
54788;DHT22;59598;48.112;16.280;2024-03-29T03:10:28;5.60;1.00
54788;DHT22;59598;48.112;16.280;2024-03-29T03:13:17;5.60;1.00
54788;DHT22;59598;48.112;16.280;2024-03-29T03:15:51;5.60;1.00
54788;DHT22;59598;48.112;16.280;2024-03-29T03:18:22;5.60;1.00
54788;DHT22;59598;48.112;16.280;2024-03-29T03:20:53;5.60;1.00
54788;DHT22;59598;48.112;16.280;2024-03-29T03:23:24;5.60;1.00
54788;DHT22;59598;48.112;16.280;2024-03-29T03:26:01;5.50;1.00
54788;DHT22;59598;48.112;16.280;2024-03-29T03:28:35;5.40;1.00
54788;DHT22;59598;48.112;16.280;2024-03-29T03:31:11;5.30;1.00
54788;DHT22;59598;48.112;16.280;2024-03-29T03:33:42;5.20;1.00
54788;DHT22;59598;48.112;16.280;2024-03-29T03:36:16;5.20;1.00
54788;DHT22;59598;48.112;16.280;2024-03-29T03:38:47;5.40;1.00
54788;DHT22;59598;48.112;16.280;2024-03-29T03:41:18;5.50;1.00
54788;DHT22;59598;48.112;16.280;2024-03-29T03:43:49;5.40;1.00
54788;DHT22;59598;48.112;16.280;2024-03-29T03:46:22;5.40;1.00
54788;DHT22;59598;48.112;16.280;2024-03-29T03:48:53;5.50;1.00
54788;DHT22;59598;48.112;16.280;2024-03-29T03:51:26;5.40;1.00
54788;DHT22;59598;48.112;16.280;2024-03-29T03:53:57;5.30;1.00
54788;DHT22;59598;48.112;16.280;2024-03-29T03:56:28;5.30;1.00
54788;DHT22;59598;48.112;16.280;2024-03-29T03:58:59;5.10;1.00
54788;DHT22;59598;48.112;16.280;2024-03-29T04:01:33;4.80;1.00
54788;DHT22;59598;48.112;16.280;2024-03-29T04:04:05;4.80;1.00
54788;DHT22;59598;48.112;16.280;2024-03-29T04:06:38;4.90;1.00
54788;DHT22;59598;48.112;16.280;2024-03-29T04:09:09;4.80;1.00
54788;DHT22;59598;48.112;16.280;2024-03-29T04:11:41;4.50;1.00
54788;DHT22;59598;48.112;16.280;2024-03-29T04:14:12;4.30;1.00
54788;DHT22;59598;48.112;16.280;2024-03-29T04:16:43;4.30;1.00
54788;DHT22;59598;48.112;16.280;2024-03-29T04:19:14;4.20;1.00
54788;DHT22;59598;48.112;16.280;2024-03-29T04:21:45;4.40;1.00
54788;DHT22;59598;48.112;16.280;2024-03-29T04:24:19;4.50;1.00
54788;DHT22;59598;48.112;16.280;2024-03-29T04:26:50;4.50;1.00
54788;DHT22;59598;48.112;16.280;2024-03-29T04:29:21;4.40;1.00
54788;DHT22;59598;48.112;16.280;2024-03-29T04:31:52;4.10;1.00
54788;DHT22;59598;48.112;16.280;2024-03-29T04:34:23;4.00;1.00
54788;DHT22;59598;48.112;16.280;2024-03-29T04:36:54;4.00;1.00
54788;DHT22;59598;48.112;16.280;2024-03-29T04:39:25;4.10;1.00
54788;DHT22;59598;48.112;16.280;2024-03-29T04:41:59;4.20;1.00
54788;DHT22;59598;48.112;16.280;2024-03-29T04:44:30;4.10;1.00
54788;DHT22;59598;48.112;16.280;2024-03-29T04:47:01;4.00;1.00
54788;DHT22;59598;48.112;16.280;2024-03-29T04:49:37;3.90;1.00
54788;DHT22;59598;48.112;16.280;2024-03-29T04:52:07;3.90;1.00
54788;DHT22;59598;48.112;16.280;2024-03-29T04:54:38;3.80;29.50
54788;DHT22;59598;48.112;16.280;2024-03-29T04:57:09;3.80;99.90
54788;DHT22;59598;48.112;16.280;2024-03-29T04:59:43;4.10;84.70
54788;DHT22;59598;48.112;16.280;2024-03-29T05:02:14;4.40;7.00
54788;DHT22;59598;48.112;16.280;2024-03-29T05:04:48;4.70;1.00
54788;DHT22;59598;48.112;16.280;2024-03-29T05:07:19;5.00;1.00
54788;DHT22;59598;48.112;16.280;2024-03-29T05:09:50;5.40;1.00
54788;DHT22;59598;48.112;16.280;2024-03-29T05:12:23;5.70;1.00
54788;DHT22;59598;48.112;16.280;2024-03-29T05:14:54;6.00;1.00
54788;DHT22;59598;48.112;16.280;2024-03-29T05:17:27;6.30;1.00
54788;DHT22;59598;48.112;16.280;2024-03-29T05:19:58;6.60;1.00
54788;DHT22;59598;48.112;16.280;2024-03-29T05:22:29;6.80;1.00
54788;DHT22;59598;48.112;16.280;2024-03-29T05:25:00;6.80;1.00
54788;DHT22;59598;48.112;16.280;2024-03-29T05:27:33;7.10;1.00
54788;DHT22;59598;48.112;16.280;2024-03-29T05:30:04;7.40;1.00
54788;DHT22;59598;48.112;16.280;2024-03-29T05:32:40;7.70;1.00
54788;DHT22;59598;48.112;16.280;2024-03-29T05:35:14;7.90;1.00
54788;DHT22;59598;48.112;16.280;2024-03-29T05:37:46;8.30;1.00
54788;DHT22;59598;48.112;16.280;2024-03-29T05:40:21;8.70;1.00
54788;DHT22;59598;48.112;16.280;2024-03-29T05:43:00;8.90;1.00
54788;DHT22;59598;48.112;16.280;2024-03-29T05:45:31;8.90;1.00
54788;DHT22;59598;48.112;16.280;2024-03-29T05:48:02;8.70;1.00
54788;DHT22;59598;48.112;16.280;2024-03-29T05:50:33;8.40;1.00
54788;DHT22;59598;48.112;16.280;2024-03-29T05:53:04;8.20;1.00
54788;DHT22;59598;48.112;16.280;2024-03-29T05:55:36;8.20;1.00
54788;DHT22;59598;48.112;16.280;2024-03-29T05:58:07;8.40;1.00
54788;DHT22;59598;48.112;16.280;2024-03-29T06:00:38;8.70;1.00
54788;DHT22;59598;48.112;16.280;2024-03-29T06:03:09;8.80;1.00
54788;DHT22;59598;48.112;16.280;2024-03-29T06:05:40;8.90;1.00
54788;DHT22;59598;48.112;16.280;2024-03-29T06:08:11;9.20;1.00
54788;DHT22;59598;48.112;16.280;2024-03-29T06:10:43;9.50;1.00
54788;DHT22;59598;48.112;16.280;2024-03-29T06:13:14;9.80;1.00
54788;DHT22;59598;48.112;16.280;2024-03-29T06:16:21;10.00;1.00
54788;DHT22;59598;48.112;16.280;2024-03-29T06:19:10;10.10;1.00
54788;DHT22;59598;48.112;16.280;2024-03-29T06:21:42;10.30;1.00
54788;DHT22;59598;48.112;16.280;2024-03-29T06:24:13;10.60;1.00
54788;DHT22;59598;48.112;16.280;2024-03-29T06:26:45;10.90;1.00
54788;DHT22;59598;48.112;16.280;2024-03-29T06:29:16;11.30;1.00
54788;DHT22;59598;48.112;16.280;2024-03-29T06:31:47;11.50;1.00
54788;DHT22;59598;48.112;16.280;2024-03-29T06:34:18;11.60;1.00
54788;DHT22;59598;48.112;16.280;2024-03-29T06:36:52;11.70;1.00
54788;DHT22;59598;48.112;16.280;2024-03-29T06:39:23;11.40;1.00
54788;DHT22;59598;48.112;16.280;2024-03-29T06:41:56;11.20;1.00
54788;DHT22;59598;48.112;16.280;2024-03-29T06:44:27;11.10;1.00
54788;DHT22;59598;48.112;16.280;2024-03-29T06:46:58;11.10;1.00
54788;DHT22;59598;48.112;16.280;2024-03-29T06:49:32;11.00;99.90
54788;DHT22;59598;48.112;16.280;2024-03-29T06:52:03;11.10;99.90
54788;DHT22;59598;48.112;16.280;2024-03-29T06:54:34;11.40;99.90
54788;DHT22;59598;48.112;16.280;2024-03-29T06:57:05;11.50;99.90
54788;DHT22;59598;48.112;16.280;2024-03-29T06:59:37;11.70;99.90
54788;DHT22;59598;48.112;16.280;2024-03-29T07:02:08;11.90;1.00
54788;DHT22;59598;48.112;16.280;2024-03-29T07:04:40;11.90;1.00
54788;DHT22;59598;48.112;16.280;2024-03-29T07:07:12;12.10;1.00
54788;DHT22;59598;48.112;16.280;2024-03-29T07:09:43;12.30;99.90
54788;DHT22;59598;48.112;16.280;2024-03-29T07:12:14;12.40;1.00
54788;DHT22;59598;48.112;16.280;2024-03-29T07:14:45;12.50;1.00
54788;DHT22;59598;48.112;16.280;2024-03-29T07:17:16;12.30;1.00
54788;DHT22;59598;48.112;16.280;2024-03-29T07:19:47;12.40;99.90
54788;DHT22;59598;48.112;16.280;2024-03-29T07:22:21;12.40;1.00
54788;DHT22;59598;48.112;16.280;2024-03-29T07:24:52;12.60;1.00
54788;DHT22;59598;48.112;16.280;2024-03-29T07:27:25;12.20;99.90
54788;DHT22;59598;48.112;16.280;2024-03-29T07:29:59;12.30;99.90
54788;DHT22;59598;48.112;16.280;2024-03-29T07:32:30;12.50;99.90
54788;DHT22;59598;48.112;16.280;2024-03-29T07:35:01;12.50;1.00
54788;DHT22;59598;48.112;16.280;2024-03-29T07:37:33;12.80;1.00
54788;DHT22;59598;48.112;16.280;2024-03-29T07:40:04;13.10;1.00
54788;DHT22;59598;48.112;16.280;2024-03-29T07:42:36;13.30;1.00
54788;DHT22;59598;48.112;16.280;2024-03-29T07:45:07;13.50;1.00
54788;DHT22;59598;48.112;16.280;2024-03-29T07:47:38;13.60;1.00
54788;DHT22;59598;48.112;16.280;2024-03-29T07:50:12;13.50;1.00
54788;DHT22;59598;48.112;16.280;2024-03-29T07:52:47;13.60;1.00
54788;DHT22;59598;48.112;16.280;2024-03-29T07:55:18;13.90;1.00
54788;DHT22;59598;48.112;16.280;2024-03-29T07:57:52;14.10;1.00
54788;DHT22;59598;48.112;16.280;2024-03-29T08:00:25;14.40;1.00
54788;DHT22;59598;48.112;16.280;2024-03-29T08:02:59;14.50;1.00
54788;DHT22;59598;48.112;16.280;2024-03-29T08:05:30;14.70;1.00
54788;DHT22;59598;48.112;16.280;2024-03-29T08:08:01;14.60;1.00
54788;DHT22;59598;48.112;16.280;2024-03-29T08:10:32;14.70;1.00
54788;DHT22;59598;48.112;16.280;2024-03-29T08:13:03;14.90;1.00
54788;DHT22;59598;48.112;16.280;2024-03-29T08:15:34;15.00;1.00
54788;DHT22;59598;48.112;16.280;2024-03-29T08:18:05;15.20;1.00
54788;DHT22;59598;48.112;16.280;2024-03-29T08:20:36;15.30;1.00
54788;DHT22;59598;48.112;16.280;2024-03-29T08:23:07;15.20;1.00
54788;DHT22;59598;48.112;16.280;2024-03-29T08:25:40;15.20;1.00
54788;DHT22;59598;48.112;16.280;2024-03-29T08:28:12;15.40;1.00
54788;DHT22;59598;48.112;16.280;2024-03-29T08:30:46;15.60;1.00
54788;DHT22;59598;48.112;16.280;2024-03-29T08:33:17;15.80;1.00
54788;DHT22;59598;48.112;16.280;2024-03-29T08:35:48;15.90;1.00
54788;DHT22;59598;48.112;16.280;2024-03-29T08:38:19;16.00;1.00
54788;DHT22;59598;48.112;16.280;2024-03-29T08:40:50;15.70;1.00
54788;DHT22;59598;48.112;16.280;2024-03-29T08:43:21;16.00;1.00
54788;DHT22;59598;48.112;16.280;2024-03-29T08:45:52;16.00;1.00
54788;DHT22;59598;48.112;16.280;2024-03-29T08:48:23;16.20;1.00
54788;DHT22;59598;48.112;16.280;2024-03-29T08:50:55;16.10;1.00
54788;DHT22;59598;48.112;16.280;2024-03-29T08:53:26;15.90;1.00
54788;DHT22;59598;48.112;16.280;2024-03-29T08:55:58;16.20;1.00
54788;DHT22;59598;48.112;16.280;2024-03-29T08:58:29;16.20;1.00
54788;DHT22;59598;48.112;16.280;2024-03-29T09:01:00;16.30;1.00
54788;DHT22;59598;48.112;16.280;2024-03-29T09:03:34;16.40;1.00
54788;DHT22;59598;48.112;16.280;2024-03-29T09:06:08;16.70;1.00
54788;DHT22;59598;48.112;16.280;2024-03-29T09:08:39;16.40;1.00
54788;DHT22;59598;48.112;16.280;2024-03-29T09:11:10;16.60;1.00
54788;DHT22;59598;48.112;16.280;2024-03-29T09:13:42;16.80;1.00
54788;DHT22;59598;48.112;16.280;2024-03-29T09:16:16;17.00;1.00
54788;DHT22;59598;48.112;16.280;2024-03-29T09:18:50;17.00;1.00
54788;DHT22;59598;48.112;16.280;2024-03-29T09:21:21;16.80;1.00
54788;DHT22;59598;48.112;16.280;2024-03-29T09:23:57;17.00;1.00
54788;DHT22;59598;48.112;16.280;2024-03-29T09:26:28;17.20;1.00
54788;DHT22;59598;48.112;16.280;2024-03-29T09:28:59;17.30;1.00
54788;DHT22;59598;48.112;16.280;2024-03-29T09:31:33;17.50;1.00
54788;DHT22;59598;48.112;16.280;2024-03-29T09:34:04;17.90;1.00
54788;DHT22;59598;48.112;16.280;2024-03-29T09:36:35;18.00;1.00
54788;DHT22;59598;48.112;16.280;2024-03-29T09:39:06;17.80;1.00
54788;DHT22;59598;48.112;16.280;2024-03-29T09:41:40;17.80;1.00
54788;DHT22;59598;48.112;16.280;2024-03-29T09:44:15;17.80;1.00
54788;DHT22;59598;48.112;16.280;2024-03-29T09:46:51;18.00;1.00
54788;DHT22;59598;48.112;16.280;2024-03-29T09:49:25;17.70;1.00
54788;DHT22;59598;48.112;16.280;2024-03-29T09:51:57;17.90;1.00
54788;DHT22;59598;48.112;16.280;2024-03-29T09:54:28;18.20;1.00
54788;DHT22;59598;48.112;16.280;2024-03-29T09:57:01;18.10;1.00
54788;DHT22;59598;48.112;16.280;2024-03-29T09:59:32;17.90;1.00
54788;DHT22;59598;48.112;16.280;2024-03-29T10:02:10;18.20;1.00
54788;DHT22;59598;48.112;16.280;2024-03-29T10:04:44;18.50;1.00
54788;DHT22;59598;48.112;16.280;2024-03-29T10:07:17;18.50;1.00
54788;DHT22;59598;48.112;16.280;2024-03-29T10:09:49;18.70;1.00
54788;DHT22;59598;48.112;16.280;2024-03-29T10:12:23;18.90;1.00
54788;DHT22;59598;48.112;16.280;2024-03-29T10:14:55;18.40;1.00
54788;DHT22;59598;48.112;16.280;2024-03-29T10:17:35;18.50;1.00
54788;DHT22;59598;48.112;16.280;2024-03-29T10:20:08;18.70;1.00
54788;DHT22;59598;48.112;16.280;2024-03-29T10:22:40;19.10;1.00
54788;DHT22;59598;48.112;16.280;2024-03-29T10:25:15;19.20;1.00
54788;DHT22;59598;48.112;16.280;2024-03-29T10:27:46;18.90;1.00
54788;DHT22;59598;48.112;16.280;2024-03-29T10:30:17;19.10;1.00
54788;DHT22;59598;48.112;16.280;2024-03-29T10:32:51;19.70;1.00
54788;DHT22;59598;48.112;16.280;2024-03-29T10:35:24;20.00;1.00
54788;DHT22;59598;48.112;16.280;2024-03-29T10:37:55;20.30;1.00
54788;DHT22;59598;48.112;16.280;2024-03-29T10:40:26;20.20;1.00
54788;DHT22;59598;48.112;16.280;2024-03-29T10:43:00;20.00;1.00
54788;DHT22;59598;48.112;16.280;2024-03-29T10:45:34;20.00;1.00
54788;DHT22;59598;48.112;16.280;2024-03-29T10:48:08;20.40;1.00
54788;DHT22;59598;48.112;16.280;2024-03-29T10:50:40;20.30;1.00
54788;DHT22;59598;48.112;16.280;2024-03-29T10:53:13;20.10;1.00
54788;DHT22;59598;48.112;16.280;2024-03-29T10:55:46;19.90;1.00
54788;DHT22;59598;48.112;16.280;2024-03-29T10:58:17;19.70;1.00
54788;DHT22;59598;48.112;16.280;2024-03-29T11:00:57;19.90;1.00
54788;DHT22;59598;48.112;16.280;2024-03-29T11:06:03;20.00;1.00
54788;DHT22;59598;48.112;16.280;2024-03-29T11:08:37;19.60;1.00
54788;DHT22;59598;48.112;16.280;2024-03-29T11:11:11;19.30;1.00
54788;DHT22;59598;48.112;16.280;2024-03-29T11:13:58;19.90;1.00
54788;DHT22;59598;48.112;16.280;2024-03-29T11:16:33;20.20;1.00
54788;DHT22;59598;48.112;16.280;2024-03-29T11:19:06;20.50;1.00
54788;DHT22;59598;48.112;16.280;2024-03-29T11:21:41;20.40;1.00
54788;DHT22;59598;48.112;16.280;2024-03-29T11:24:19;20.10;1.00
54788;DHT22;59598;48.112;16.280;2024-03-29T11:26:52;19.90;1.00
54788;DHT22;59598;48.112;16.280;2024-03-29T11:29:24;20.30;1.00
54788;DHT22;59598;48.112;16.280;2024-03-29T11:31:56;20.40;1.00
54788;DHT22;59598;48.112;16.280;2024-03-29T11:34:30;19.70;1.00
54788;DHT22;59598;48.112;16.280;2024-03-29T11:37:09;19.70;1.00
54788;DHT22;59598;48.112;16.280;2024-03-29T11:39:40;20.60;1.00
54788;DHT22;59598;48.112;16.280;2024-03-29T11:42:17;21.60;1.00
54788;DHT22;59598;48.112;16.280;2024-03-29T11:44:48;22.10;1.00
54788;DHT22;59598;48.112;16.280;2024-03-29T11:47:19;21.50;1.00
54788;DHT22;59598;48.112;16.280;2024-03-29T11:49:55;21.20;1.00
54788;DHT22;59598;48.112;16.280;2024-03-29T11:52:27;21.30;1.00
54788;DHT22;59598;48.112;16.280;2024-03-29T11:55:01;21.70;1.00
54788;DHT22;59598;48.112;16.280;2024-03-29T11:57:32;22.70;1.00
54788;DHT22;59598;48.112;16.280;2024-03-29T12:00:03;23.60;1.00
54788;DHT22;59598;48.112;16.280;2024-03-29T12:02:35;23.60;1.00
54788;DHT22;59598;48.112;16.280;2024-03-29T12:05:06;23.80;1.00
54788;DHT22;59598;48.112;16.280;2024-03-29T12:07:39;24.70;1.00
54788;DHT22;59598;48.112;16.280;2024-03-29T12:10:10;26.00;1.00
54788;DHT22;59598;48.112;16.280;2024-03-29T12:12:41;25.80;1.00
54788;DHT22;59598;48.112;16.280;2024-03-29T12:15:12;25.70;1.00
54788;DHT22;59598;48.112;16.280;2024-03-29T12:17:52;25.90;1.00
54788;DHT22;59598;48.112;16.280;2024-03-29T12:20:23;26.20;1.00
54788;DHT22;59598;48.112;16.280;2024-03-29T12:22:54;26.40;1.00
54788;DHT22;59598;48.112;16.280;2024-03-29T12:25:28;25.80;1.00
54788;DHT22;59598;48.112;16.280;2024-03-29T12:28:00;25.10;1.00
54788;DHT22;59598;48.112;16.280;2024-03-29T12:30:31;24.50;1.00
54788;DHT22;59598;48.112;16.280;2024-03-29T12:33:05;24.50;1.00
54788;DHT22;59598;48.112;16.280;2024-03-29T12:35:44;23.80;1.00
54788;DHT22;59598;48.112;16.280;2024-03-29T12:38:16;23.60;1.00
54788;DHT22;59598;48.112;16.280;2024-03-29T12:40:48;23.70;1.00
54788;DHT22;59598;48.112;16.280;2024-03-29T12:43:19;23.60;1.00
54788;DHT22;59598;48.112;16.280;2024-03-29T12:45:51;23.80;1.00
54788;DHT22;59598;48.112;16.280;2024-03-29T12:48:22;23.70;1.00
54788;DHT22;59598;48.112;16.280;2024-03-29T12:50:54;24.30;1.00
54788;DHT22;59598;48.112;16.280;2024-03-29T12:53:29;24.20;1.00
54788;DHT22;59598;48.112;16.280;2024-03-29T12:56:00;23.90;1.00
54788;DHT22;59598;48.112;16.280;2024-03-29T12:58:32;23.60;1.00
54788;DHT22;59598;48.112;16.280;2024-03-29T13:01:05;23.10;1.00
54788;DHT22;59598;48.112;16.280;2024-03-29T13:03:37;22.60;1.00
54788;DHT22;59598;48.112;16.280;2024-03-29T13:06:09;22.50;1.00
54788;DHT22;59598;48.112;16.280;2024-03-29T13:08:40;22.70;1.00
54788;DHT22;59598;48.112;16.280;2024-03-29T13:11:11;23.30;1.00
54788;DHT22;59598;48.112;16.280;2024-03-29T13:13:43;24.20;1.00
54788;DHT22;59598;48.112;16.280;2024-03-29T13:16:14;24.80;1.00
54788;DHT22;59598;48.112;16.280;2024-03-29T13:18:45;25.60;1.00
54788;DHT22;59598;48.112;16.280;2024-03-29T13:21:16;26.20;1.00
54788;DHT22;59598;48.112;16.280;2024-03-29T13:23:47;26.50;1.00
54788;DHT22;59598;48.112;16.280;2024-03-29T13:26:18;27.70;1.00
54788;DHT22;59598;48.112;16.280;2024-03-29T13:28:49;27.20;1.00
54788;DHT22;59598;48.112;16.280;2024-03-29T13:31:20;26.30;1.00
54788;DHT22;59598;48.112;16.280;2024-03-29T13:33:51;26.90;1.00
54788;DHT22;59598;48.112;16.280;2024-03-29T13:36:22;27.90;1.00
54788;DHT22;59598;48.112;16.280;2024-03-29T13:38:53;27.60;1.00
54788;DHT22;59598;48.112;16.280;2024-03-29T13:41:24;27.10;1.00
54788;DHT22;59598;48.112;16.280;2024-03-29T13:43:55;26.70;1.00
54788;DHT22;59598;48.112;16.280;2024-03-29T13:46:32;25.60;1.00
54788;DHT22;59598;48.112;16.280;2024-03-29T13:49:03;26.40;99.90
54788;DHT22;59598;48.112;16.280;2024-03-29T13:51:34;26.80;99.90
54788;DHT22;59598;48.112;16.280;2024-03-29T13:54:05;27.10;99.90
54788;DHT22;59598;48.112;16.280;2024-03-29T13:56:36;28.60;99.90
54788;DHT22;59598;48.112;16.280;2024-03-29T13:59:08;30.40;1.00
54788;DHT22;59598;48.112;16.280;2024-03-29T14:01:39;31.20;1.00
54788;DHT22;59598;48.112;16.280;2024-03-29T14:04:10;31.20;1.00
54788;DHT22;59598;48.112;16.280;2024-03-29T14:06:42;29.20;99.90
54788;DHT22;59598;48.112;16.280;2024-03-29T14:09:13;28.90;99.90
54788;DHT22;59598;48.112;16.280;2024-03-29T14:11:45;28.80;99.90
54788;DHT22;59598;48.112;16.280;2024-03-29T14:14:17;29.10;99.90
54788;DHT22;59598;48.112;16.280;2024-03-29T14:16:48;28.40;1.00
54788;DHT22;59598;48.112;16.280;2024-03-29T14:19:21;30.10;99.90
54788;DHT22;59598;48.112;16.280;2024-03-29T14:21:55;30.10;1.00
54788;DHT22;59598;48.112;16.280;2024-03-29T14:24:28;28.60;99.90
54788;DHT22;59598;48.112;16.280;2024-03-29T14:27:06;30.20;1.00
54788;DHT22;59598;48.112;16.280;2024-03-29T14:29:37;32.10;1.00
54788;DHT22;59598;48.112;16.280;2024-03-29T14:32:08;32.00;99.90
54788;DHT22;59598;48.112;16.280;2024-03-29T14:34:41;31.90;1.00
54788;DHT22;59598;48.112;16.280;2024-03-29T14:37:17;30.40;1.00
54788;DHT22;59598;48.112;16.280;2024-03-29T14:39:50;29.10;1.00
54788;DHT22;59598;48.112;16.280;2024-03-29T14:42:21;28.30;1.00
54788;DHT22;59598;48.112;16.280;2024-03-29T14:44:53;27.90;1.00
54788;DHT22;59598;48.112;16.280;2024-03-29T14:47:24;28.40;1.00
54788;DHT22;59598;48.112;16.280;2024-03-29T14:49:59;28.40;1.00
54788;DHT22;59598;48.112;16.280;2024-03-29T14:52:30;28.60;1.00
54788;DHT22;59598;48.112;16.280;2024-03-29T14:55:01;28.00;1.00
54788;DHT22;59598;48.112;16.280;2024-03-29T14:57:38;27.70;1.00
54788;DHT22;59598;48.112;16.280;2024-03-29T15:00:12;27.70;1.00
54788;DHT22;59598;48.112;16.280;2024-03-29T15:02:46;27.20;1.00
54788;DHT22;59598;48.112;16.280;2024-03-29T15:05:17;26.90;1.00
54788;DHT22;59598;48.112;16.280;2024-03-29T15:07:48;26.50;99.90
54788;DHT22;59598;48.112;16.280;2024-03-29T15:10:19;26.30;1.00
54788;DHT22;59598;48.112;16.280;2024-03-29T15:12:52;26.30;1.00
54788;DHT22;59598;48.112;16.280;2024-03-29T15:15:23;25.40;1.00
54788;DHT22;59598;48.112;16.280;2024-03-29T15:17:54;24.70;99.90
54788;DHT22;59598;48.112;16.280;2024-03-29T15:20:26;24.30;99.90
54788;DHT22;59598;48.112;16.280;2024-03-29T15:22:57;23.80;99.90
54788;DHT22;59598;48.112;16.280;2024-03-29T15:25:33;23.30;99.90
54788;DHT22;59598;48.112;16.280;2024-03-29T15:28:05;23.10;99.90
54788;DHT22;59598;48.112;16.280;2024-03-29T15:30:41;22.90;99.90
54788;DHT22;59598;48.112;16.280;2024-03-29T15:33:22;22.80;99.90
54788;DHT22;59598;48.112;16.280;2024-03-29T15:35:53;22.50;99.90
54788;DHT22;59598;48.112;16.280;2024-03-29T15:38:24;22.40;99.90
54788;DHT22;59598;48.112;16.280;2024-03-29T15:40:59;22.30;99.90
54788;DHT22;59598;48.112;16.280;2024-03-29T15:43:35;22.20;99.90
54788;DHT22;59598;48.112;16.280;2024-03-29T15:46:14;22.10;99.90
54788;DHT22;59598;48.112;16.280;2024-03-29T15:48:45;22.00;99.90
54788;DHT22;59598;48.112;16.280;2024-03-29T15:51:16;21.90;99.90
54788;DHT22;59598;48.112;16.280;2024-03-29T15:53:48;21.80;99.90
54788;DHT22;59598;48.112;16.280;2024-03-29T15:56:19;21.70;99.90
54788;DHT22;59598;48.112;16.280;2024-03-29T15:58:52;21.60;99.90
54788;DHT22;59598;48.112;16.280;2024-03-29T16:01:24;21.50;99.90
54788;DHT22;59598;48.112;16.280;2024-03-29T16:03:55;21.30;99.90
54788;DHT22;59598;48.112;16.280;2024-03-29T16:06:26;21.20;99.90
54788;DHT22;59598;48.112;16.280;2024-03-29T16:08:57;21.00;99.90